Time;durP1;ratioP1;P1;durP2;ratioP2;P2;SDS_P1;SDS_P2;PMS_P1;PMS_P2;Temp;Humidity;BMP_temperature;BMP_pressure;BME280_temperature;BME280_humidity;BME280_pressure;Samples;Min_cycle;Max_cycle;Signal;HPM_P1;HPM_P2
2022/09/15 00:01:04;;;;;;;11.00;6.93;;;26.30;43.00;;;;;;4975929;28;20413;-80
2022/09/15 00:03:32;;;;;;;11.73;6.80;;;26.30;43.10;;;;;;4976238;28;20478;-79
2022/09/15 00:06:00;;;;;;;8.77;6.70;;;26.20;43.10;;;;;;4965330;28;20447;-79
2022/09/15 00:08:28;;;;;;;9.30;6.03;;;26.20;43.20;;;;;;4956785;28;20450;-78
2022/09/15 00:11:04;;;;;;;7.87;6.53;;;26.20;43.10;;;;;;4956417;28;20424;-78
2022/09/15 00:13:33;;;;;;;8.20;6.17;;;26.20;43.00;;;;;;4949425;28;20463;-78
2022/09/15 00:16:01;;;;;;;8.00;6.13;;;26.20;43.20;;;;;;4938218;29;20462;-79
2022/09/15 00:18:29;;;;;;;7.53;6.17;;;26.20;43.20;;;;;;4937934;29;20452;-79
2022/09/15 00:20:58;;;;;;;7.90;5.40;;;26.20;43.20;;;;;;4941073;29;20456;-79
2022/09/15 00:23:26;;;;;;;7.73;6.23;;;26.20;43.30;;;;;;4941355;29;20422;-79
2022/09/15 00:25:54;;;;;;;8.37;6.30;;;26.20;43.30;;;;;;4941796;29;20430;-79
2022/09/15 00:28:24;;;;;;;7.43;5.87;;;26.20;43.40;;;;;;4941963;29;20423;-80
2022/09/15 00:30:53;;;;;;;9.00;5.97;;;26.20;43.30;;;;;;4942117;29;20950;-79
2022/09/15 00:33:22;;;;;;;7.73;5.43;;;26.20;43.30;;;;;;4961744;28;20446;-79
2022/09/15 00:35:51;;;;;;;6.13;5.53;;;26.20;43.30;;;;;;4960690;28;20496;-80
2022/09/15 00:38:19;;;;;;;6.23;5.40;;;26.20;43.40;;;;;;4960519;28;20445;-80
2022/09/15 00:40:48;;;;;;;6.60;5.63;;;26.20;43.40;;;;;;4959736;28;20439;-80
2022/09/15 00:43:17;;;;;;;6.43;5.60;;;26.20;43.40;;;;;;4960011;28;20426;-80
2022/09/15 00:45:47;;;;;;;6.23;5.13;;;26.10;43.40;;;;;;4961265;28;20427;-80
2022/09/15 00:48:21;;;;;;;8.67;5.40;;;26.10;43.40;;;;;;4968401;28;20460;-78
2022/09/15 00:50:54;;;;;;;6.00;5.17;;;26.10;43.50;;;;;;4966702;28;20456;-80
2022/09/15 00:53:22;;;;;;;6.70;5.00;;;26.10;43.50;;;;;;4964482;28;20439;-80
2022/09/15 00:55:50;;;;;;;6.90;5.20;;;26.10;43.40;;;;;;4963884;28;20462;-80
2022/09/15 00:58:22;;;;;;;5.90;5.30;;;26.10;43.50;;;;;;4964507;28;20446;-80
2022/09/15 01:00:55;;;;;;;7.50;5.23;;;26.00;43.50;;;;;;4962862;28;20530;-80
2022/09/15 01:03:23;;;;;;;5.83;5.07;;;26.10;43.60;;;;;;4952669;28;20471;-80
2022/09/15 01:05:54;;;;;;;8.13;5.00;;;26.00;43.50;;;;;;4958823;28;20449;-79
2022/09/15 01:08:26;;;;;;;5.93;4.97;;;26.10;43.50;;;;;;4959263;28;20447;-79
2022/09/15 01:10:54;;;;;;;6.50;4.90;;;26.10;43.60;;;;;;4958783;28;20440;-79
2022/09/15 01:13:22;;;;;;;7.27;4.47;;;26.00;43.50;;;;;;4959171;28;20425;-80
2022/09/15 01:15:57;;;;;;;5.43;4.93;;;26.00;43.50;;;;;;4958925;28;20938;-79
2022/09/15 01:18:29;;;;;;;6.13;5.53;;;26.10;43.60;;;;;;4957943;28;20457;-80
2022/09/15 01:21:16;;;;;;;7.20;4.63;;;26.10;43.50;;;;;;4957805;28;20478;-79
2022/09/15 01:24:16;;;;;;;6.80;5.00;;;26.00;43.50;;;;;;4954783;29;20424;-79
2022/09/15 01:26:54;;;;;;;4.80;4.33;;;26.00;43.50;;;;;;4945774;29;20459;-80
2022/09/15 01:29:36;;;;;;;10.10;4.47;;;26.10;43.60;;;;;;4950831;29;20450;-80
2022/09/15 01:34:56;;;;;;;5.10;4.60;;;26.00;43.70;;;;;;4938876;29;20441;-80
2022/09/15 01:37:28;;;;;;;4.87;4.47;;;26.00;43.70;;;;;;4944225;29;20466;-80
2022/09/15 01:39:56;;;;;;;6.10;5.20;;;26.00;43.60;;;;;;4956588;28;20449;-80
2022/09/15 01:42:24;;;;;;;5.50;4.33;;;26.00;43.70;;;;;;4957751;28;20425;-80
2022/09/15 01:44:56;;;;;;;5.90;4.33;;;26.00;43.80;;;;;;4960397;28;20582;-81
2022/09/15 01:47:24;;;;;;;9.00;4.50;;;26.00;43.90;;;;;;4958125;28;20425;-80
2022/09/15 01:49:54;;;;;;;9.67;4.90;;;26.00;43.90;;;;;;4958047;28;20479;-81
2022/09/15 01:52:23;;;;;;;4.80;4.40;;;26.00;43.90;;;;;;4962671;28;20447;-80
2022/09/15 01:54:57;;;;;;;5.40;4.37;;;26.00;43.90;;;;;;4960268;28;20832;-81
2022/09/15 01:57:27;;;;;;;7.33;4.50;;;26.00;43.90;;;;;;4970020;28;20420;-80
2022/09/15 01:59:59;;;;;;;8.93;4.60;;;26.00;43.90;;;;;;4979528;28;20481;-78
2022/09/15 02:02:30;;;;;;;5.23;4.70;;;26.00;44.00;;;;;;4978129;28;20429;-78
2022/09/15 02:05:00;;;;;;;4.83;4.43;;;26.00;44.00;;;;;;4985779;28;20501;-79
2022/09/15 02:07:34;;;;;;;5.20;4.70;;;26.00;44.00;;;;;;4987577;28;20504;-80
2022/09/15 02:10:06;;;;;;;6.13;5.23;;;26.00;44.00;;;;;;4985786;28;20444;-80
2022/09/15 02:12:37;;;;;;;4.90;4.50;;;26.00;44.00;;;;;;4959783;28;20436;-80
2022/09/15 02:15:07;;;;;;;5.50;4.20;;;26.00;44.10;;;;;;4968212;28;20450;-80
2022/09/15 02:17:37;;;;;;;5.20;4.70;;;26.00;44.00;;;;;;4965729;28;20429;-80
2022/09/15 02:20:08;;;;;;;4.93;4.47;;;25.90;44.10;;;;;;4967951;28;20477;-80
2022/09/15 02:22:37;;;;;;;4.87;4.47;;;25.90;44.10;;;;;;4965462;28;20465;-79
2022/09/15 02:25:08;;;;;;;6.73;4.30;;;25.90;44.20;;;;;;4962310;28;20441;-80
2022/09/15 02:27:37;;;;;;;5.53;5.03;;;25.90;44.10;;;;;;4955051;29;20454;-80
2022/09/15 02:30:10;;;;;;;5.07;4.60;;;26.00;44.10;;;;;;4968045;28;20441;-80
2022/09/15 02:32:40;;;;;;;7.60;5.30;;;25.90;44.10;;;;;;4983496;28;20458;-80
2022/09/15 02:35:09;;;;;;;5.27;4.77;;;26.00;44.30;;;;;;4983733;28;20452;-80
2022/09/15 02:37:37;;;;;;;5.20;4.73;;;25.90;44.20;;;;;;4983203;28;20450;-80
2022/09/15 02:40:05;;;;;;;6.80;5.37;;;25.90;44.20;;;;;;4954228;28;21057;-80
2022/09/15 02:42:34;;;;;;;11.03;4.60;;;25.90;44.30;;;;;;4944563;29;20449;-80
2022/09/15 02:45:02;;;;;;;5.63;4.80;;;25.90;44.20;;;;;;4972642;28;20455;-80
2022/09/15 02:47:31;;;;;;;6.17;4.70;;;26.00;44.40;;;;;;4983211;28;20434;-81
2022/09/15 02:49:59;;;;;;;5.20;4.70;;;25.90;44.20;;;;;;4982245;28;20457;-80
2022/09/15 02:52:28;;;;;;;5.37;4.40;;;25.90;44.20;;;;;;4979922;28;20441;-81
2022/09/15 02:54:56;;;;;;;4.90;4.40;;;25.90;44.20;;;;;;4963171;28;20414;-81
2022/09/15 02:57:24;;;;;;;5.03;4.63;;;25.90;44.40;;;;;;4963995;28;20436;-80
2022/09/15 03:02:39;;;;;;;7.40;4.63;;;25.90;44.50;;;;;;4943120;29;20426;-81
2022/09/15 03:05:08;;;;;;;6.10;4.57;;;25.90;44.40;;;;;;4962650;29;20476;-80
2022/09/15 03:07:37;;;;;;;8.30;4.53;;;25.90;44.40;;;;;;4962925;28;20459;-80
2022/09/15 03:10:06;;;;;;;5.40;4.90;;;25.90;44.40;;;;;;4963689;28;20474;-81
2022/09/15 03:12:37;;;;;;;6.27;4.30;;;25.90;44.30;;;;;;4963190;28;20479;-81
2022/09/15 03:15:06;;;;;;;8.27;4.30;;;25.90;44.40;;;;;;4960873;28;20462;-80
2022/09/15 03:17:35;;;;;;;6.90;4.53;;;25.90;44.30;;;;;;4963460;28;20413;-79
2022/09/15 03:20:06;;;;;;;4.53;4.10;;;25.90;45.00;;;;;;4973097;28;20500;-80
2022/09/15 03:22:34;;;;;;;6.40;4.40;;;25.90;44.40;;;;;;4983419;28;20432;-80
2022/09/15 03:25:03;;;;;;;5.30;4.47;;;25.90;44.60;;;;;;4983690;28;20461;-81
2022/09/15 03:27:32;;;;;;;7.50;4.60;;;25.90;44.30;;;;;;4964130;28;20434;-80
2022/09/15 03:30:00;;;;;;;7.13;4.50;;;25.90;44.50;;;;;;4965134;28;20468;-81
2022/09/15 03:32:28;;;;;;;4.93;4.00;;;25.90;44.30;;;;;;4963993;28;20458;-80
2022/09/15 03:34:57;;;;;;;5.27;4.07;;;25.90;44.20;;;;;;4962368;28;20436;-80
2022/09/15 03:37:26;;;;;;;4.70;3.97;;;25.90;44.40;;;;;;4962966;28;20741;-81
2022/09/15 03:39:54;;;;;;;5.40;4.13;;;25.80;44.40;;;;;;4962660;28;20501;-80
2022/09/15 03:42:23;;;;;;;4.17;3.80;;;25.90;44.50;;;;;;4960778;28;20497;-80
2022/09/15 03:44:51;;;;;;;4.53;4.17;;;25.90;45.10;;;;;;4959919;28;20455;-80
2022/09/15 03:47:19;;;;;;;4.63;4.23;;;25.90;44.50;;;;;;4961613;29;20441;-80
2022/09/15 03:49:47;;;;;;;4.47;3.47;;;25.80;44.50;;;;;;4959187;28;20453;-79
2022/09/15 03:52:16;;;;;;;4.97;3.70;;;25.80;44.60;;;;;;4967635;28;20442;-79
2022/09/15 03:54:45;;;;;;;4.23;3.73;;;25.90;44.50;;;;;;4976724;28;20436;-79
2022/09/15 03:57:13;;;;;;;4.23;3.80;;;25.90;44.60;;;;;;4961537;28;20523;-79
2022/09/15 03:59:41;;;;;;;5.70;3.43;;;25.80;44.40;;;;;;4962242;28;20452;-79
2022/09/15 04:02:10;;;;;;;3.87;3.53;;;25.80;44.60;;;;;;4961855;28;20451;-80
2022/09/15 04:04:38;;;;;;;5.80;3.87;;;25.80;44.60;;;;;;4961998;28;20425;-80
2022/09/15 04:07:07;;;;;;;3.83;3.63;;;25.80;44.60;;;;;;4961609;28;20481;-80
2022/09/15 04:09:36;;;;;;;4.50;3.60;;;25.80;44.50;;;;;;4969324;28;20443;-80
2022/09/15 04:12:06;;;;;;;3.80;3.60;;;25.80;44.70;;;;;;4977252;28;20433;-79
2022/09/15 04:14:33;;;;;;;4.30;3.33;;;25.80;44.60;;;;;;4960888;28;20406;-80
2022/09/15 04:17:02;;;;;;;4.40;3.80;;;25.80;44.60;;;;;;4961374;28;20455;-79
2022/09/15 04:19:29;;;;;;;4.33;3.43;;;25.80;44.80;;;;;;4960784;28;20474;-79
2022/09/15 04:21:58;;;;;;;3.93;3.60;;;25.70;44.70;;;;;;4960832;28;20430;-80
2022/09/15 04:24:26;;;;;;;4.83;3.20;;;25.80;44.70;;;;;;4961585;28;20426;-79
2022/09/15 04:26:54;;;;;;;3.63;3.33;;;25.70;44.70;;;;;;4969341;28;20966;-80
2022/09/15 04:29:24;;;;;;;6.30;3.50;;;25.80;44.80;;;;;;4956555;28;20440;-80
2022/09/15 04:31:52;;;;;;;6.60;3.10;;;25.70;44.90;;;;;;4959316;28;20422;-80
2022/09/15 04:34:21;;;;;;;3.13;2.93;;;25.70;44.70;;;;;;4958141;28;20542;-80
2022/09/15 04:36:48;;;;;;;7.53;3.13;;;25.80;44.80;;;;;;4956554;28;20444;-79
2022/09/15 04:39:17;;;;;;;3.57;2.97;;;25.80;45.00;;;;;;4956940;28;20467;-80
2022/09/15 04:41:45;;;;;;;5.50;3.43;;;25.80;44.90;;;;;;4955921;28;20431;-79
2022/09/15 04:44:13;;;;;;;3.70;2.73;;;25.80;44.90;;;;;;4959700;28;20420;-79
2022/09/15 04:46:43;;;;;;;3.60;3.27;;;25.80;45.00;;;;;;4975420;28;20469;-81
2022/09/15 04:49:11;;;;;;;3.77;2.80;;;25.80;45.00;;;;;;4960914;28;20473;-81
2022/09/15 04:51:39;;;;;;;2.87;2.67;;;25.80;44.90;;;;;;4962592;28;20440;-80
2022/09/15 04:54:07;;;;;;;4.73;2.70;;;25.80;45.00;;;;;;4962989;28;20451;-80
2022/09/15 04:56:36;;;;;;;3.40;2.60;;;25.80;45.00;;;;;;4957561;28;20445;-80
2022/09/15 04:59:04;;;;;;;2.90;2.53;;;25.80;45.10;;;;;;4963288;28;20498;-81
2022/09/15 05:01:33;;;;;;;3.03;2.70;;;25.80;45.10;;;;;;4968944;28;20447;-81
2022/09/15 05:04:03;;;;;;;2.90;2.70;;;25.80;45.20;;;;;;4981450;28;20458;-80
2022/09/15 05:06:31;;;;;;;5.80;2.37;;;25.70;45.00;;;;;;4983029;28;20478;-79
2022/09/15 05:09:00;;;;;;;4.07;2.77;;;25.80;45.40;;;;;;4979034;28;20448;-79
2022/09/15 05:11:29;;;;;;;2.83;2.63;;;25.80;45.20;;;;;;4978927;28;20454;-77
2022/09/15 05:13:57;;;;;;;2.70;2.50;;;25.70;45.20;;;;;;4959004;29;20447;-79
2022/09/15 05:16:26;;;;;;;11.83;2.60;;;25.80;45.40;;;;;;4958460;28;20454;-80
2022/09/15 05:18:57;;;;;;;4.43;2.60;;;25.80;45.30;;;;;;4959637;28;20514;-79
2022/09/15 05:21:27;;;;;;;5.83;2.90;;;25.80;45.40;;;;;;4977999;28;20425;-79
2022/09/15 05:23:55;;;;;;;9.43;2.73;;;25.80;45.60;;;;;;4986389;28;20450;-79
2022/09/15 05:26:25;;;;;;;4.60;2.33;;;25.80;45.50;;;;;;4980210;28;20451;-80
2022/09/15 05:28:53;;;;;;;10.83;2.80;;;25.90;45.30;;;;;;4963045;28;20475;-80
2022/09/15 05:31:25;;;;;;;10.40;3.00;;;25.90;45.20;;;;;;4963466;28;20493;-80
2022/09/15 05:34:10;;;;;;;4.37;2.90;;;25.90;45.10;;;;;;4960342;28;20405;-81
2022/09/15 05:36:39;;;;;;;4.00;2.30;;;25.90;45.30;;;;;;4965931;28;20450;-80
2022/09/15 05:39:12;;;;;;;4.10;2.80;;;25.90;45.10;;;;;;4967173;28;20449;-81
2022/09/15 05:41:41;;;;;;;5.33;2.67;;;25.90;45.00;;;;;;4964427;28;20422;-81
2022/09/15 05:44:10;;;;;;;3.40;2.77;;;26.00;45.00;;;;;;4972425;28;20546;-81
2022/09/15 05:46:38;;;;;;;4.23;2.70;;;25.90;44.90;;;;;;4969126;28;20445;-81
2022/09/15 05:49:08;;;;;;;2.50;2.20;;;25.90;45.00;;;;;;4960761;28;20882;-82
2022/09/15 05:51:38;;;;;;;6.90;3.10;;;25.90;45.00;;;;;;4962302;28;20444;-79
2022/09/15 05:54:14;;;;;;;4.03;2.60;;;25.90;45.00;;;;;;4965961;28;20450;-80
2022/09/15 05:56:42;;;;;;;7.47;2.90;;;25.90;44.90;;;;;;4969160;28;20421;-81
2022/09/15 05:59:10;;;;;;;6.43;2.40;;;25.90;45.00;;;;;;4958364;28;20449;-79
2022/09/15 06:01:38;;;;;;;7.93;2.70;;;26.00;44.80;;;;;;4965840;28;20413;-79
2022/09/15 06:04:06;;;;;;;3.10;2.80;;;26.00;44.80;;;;;;4977713;28;20458;-79
2022/09/15 06:06:34;;;;;;;5.57;2.47;;;26.00;44.90;;;;;;4960983;28;20478;-77
2022/09/15 06:09:02;;;;;;;5.27;2.63;;;25.90;44.50;;;;;;4956966;28;20481;-76
2022/09/15 06:11:33;;;;;;;4.47;2.80;;;25.70;44.50;;;;;;4971263;28;20456;-76
2022/09/15 06:14:01;;;;;;;8.83;2.70;;;25.60;45.00;;;;;;4956119;28;20483;-76
2022/09/15 06:16:31;;;;;;;4.73;2.67;;;25.50;45.00;;;;;;4954953;28;20479;-78
2022/09/15 06:18:59;;;;;;;6.93;2.47;;;25.30;45.20;;;;;;4957991;28;20445;-78
2022/09/15 06:21:29;;;;;;;6.40;2.50;;;25.20;45.20;;;;;;4955619;29;20422;-78
2022/09/15 06:23:58;;;;;;;2.47;2.30;;;25.10;45.30;;;;;;4950650;28;20467;-78
2022/09/15 06:26:27;;;;;;;2.60;2.33;;;25.10;45.40;;;;;;4969920;28;20457;-77
2022/09/15 06:28:58;;;;;;;3.03;2.57;;;25.00;45.60;;;;;;4976431;28;20466;-77
2022/09/15 06:31:26;;;;;;;5.00;2.10;;;25.00;45.40;;;;;;4975464;28;20501;-78
2022/09/15 06:33:56;;;;;;;3.10;2.03;;;25.00;45.30;;;;;;4975794;28;20454;-77
2022/09/15 06:36:24;;;;;;;2.47;2.27;;;24.90;45.20;;;;;;4971670;28;20608;-77
2022/09/15 06:38:53;;;;;;;3.90;2.43;;;24.90;45.40;;;;;;4956108;28;20514;-77
2022/09/15 06:41:21;;;;;;;2.33;2.13;;;24.90;45.50;;;;;;4968136;28;20780;-77
2022/09/15 06:43:49;;;;;;;3.40;1.90;;;24.80;45.10;;;;;;4973519;28;20420;-77
2022/09/15 06:46:20;;;;;;;3.10;2.00;;;24.80;45.30;;;;;;4955610;29;20430;-76
2022/09/15 06:48:50;;;;;;;2.63;2.43;;;24.80;45.20;;;;;;4953439;28;20453;-77
2022/09/15 06:51:18;;;;;;;2.23;2.00;;;24.80;45.20;;;;;;4954993;28;20518;-77
2022/09/15 06:53:46;;;;;;;4.80;2.13;;;24.80;45.20;;;;;;4963284;28;20476;-77
2022/09/15 06:56:15;;;;;;;2.60;2.43;;;24.80;45.10;;;;;;5001261;28;20452;-77
2022/09/15 06:58:43;;;;;;;4.83;2.03;;;24.80;45.00;;;;;;5004518;28;20470;-77
2022/09/15 07:01:13;;;;;;;2.00;1.80;;;24.80;44.90;;;;;;4995763;28;20432;-77
2022/09/15 07:03:43;;;;;;;2.30;2.13;;;24.80;44.90;;;;;;4994883;28;20445;-75
2022/09/15 07:06:11;;;;;;;2.30;2.10;;;24.80;45.00;;;;;;4992258;28;20458;-76
2022/09/15 07:08:39;;;;;;;2.30;2.07;;;24.80;44.80;;;;;;4986546;28;20452;-77
2022/09/15 07:11:08;;;;;;;3.13;2.20;;;24.80;44.60;;;;;;4993920;28;20866;-77
2022/09/15 07:13:36;;;;;;;3.83;2.10;;;24.90;44.60;;;;;;4995150;28;20437;-77
2022/09/15 07:16:07;;;;;;;2.30;2.20;;;24.80;44.40;;;;;;4992191;28;20424;-76
2022/09/15 07:18:36;;;;;;;1.67;1.50;;;24.90;44.50;;;;;;4992632;28;20451;-76
2022/09/15 07:21:14;;;;;;;3.03;1.73;;;24.90;44.30;;;;;;4993291;28;20459;-77
2022/09/15 07:23:42;;;;;;;2.03;1.83;;;24.90;44.40;;;;;;4993386;28;20472;-77
2022/09/15 07:26:12;;;;;;;2.10;2.00;;;24.90;44.20;;;;;;4993208;28;20428;-78
2022/09/15 07:28:41;;;;;;;2.03;1.83;;;24.90;44.20;;;;;;4996274;28;20475;-76
2022/09/15 07:31:11;;;;;;;2.03;1.93;;;24.90;44.20;;;;;;4990869;28;20542;-77
2022/09/15 07:33:38;;;;;;;2.70;1.63;;;24.90;44.00;;;;;;4993090;28;20465;-77
2022/09/15 07:36:07;;;;;;;1.93;1.40;;;25.00;44.00;;;;;;4984826;28;21241;-77
2022/09/15 07:38:39;;;;;;;2.80;1.63;;;25.00;43.90;;;;;;4988522;28;20522;-76
2022/09/15 07:41:08;;;;;;;2.70;1.70;;;25.00;43.80;;;;;;4973298;28;20443;-77
2022/09/15 07:43:36;;;;;;;1.90;1.80;;;25.00;43.80;;;;;;4990979;28;20448;-77
2022/09/15 07:46:04;;;;;;;3.00;2.07;;;25.10;43.70;;;;;;4998259;28;20962;-77
2022/09/15 07:48:32;;;;;;;1.67;1.57;;;25.10;43.60;;;;;;4996720;28;20473;-78
2022/09/15 07:51:00;;;;;;;3.53;1.40;;;25.10;43.50;;;;;;4992261;28;20483;-77
2022/09/15 07:53:29;;;;;;;2.07;1.60;;;25.20;43.50;;;;;;4992347;28;20942;-77
2022/09/15 07:55:58;;;;;;;1.83;1.53;;;25.20;43.40;;;;;;4987508;28;20464;-77
2022/09/15 07:58:26;;;;;;;2.63;1.77;;;25.30;43.30;;;;;;4994013;28;20510;-77
2022/09/15 08:00:55;;;;;;;3.73;1.67;;;25.30;43.20;;;;;;4991640;28;20453;-77
2022/09/15 08:03:23;;;;;;;2.60;1.70;;;25.40;43.20;;;;;;4997675;28;20827;-78
2022/09/15 08:05:51;;;;;;;3.60;1.63;;;25.40;43.00;;;;;;4995840;28;20419;-78
2022/09/15 08:08:19;;;;;;;1.53;1.43;;;25.30;43.00;;;;;;4995260;28;20459;-77
2022/09/15 08:10:47;;;;;;;2.47;2.07;;;25.30;42.90;;;;;;4994747;28;20460;-78
2022/09/15 08:13:17;;;;;;;2.97;1.43;;;25.30;42.90;;;;;;5008056;28;20427;-78
2022/09/15 08:15:45;;;;;;;2.50;1.90;;;25.40;42.80;;;;;;4999716;28;20431;-77
2022/09/15 08:18:13;;;;;;;2.23;1.73;;;25.40;42.80;;;;;;4991148;28;20462;-77
2022/09/15 08:20:41;;;;;;;1.50;1.37;;;25.50;42.90;;;;;;4994622;28;20440;-77
2022/09/15 08:23:10;;;;;;;1.47;1.47;;;25.50;42.70;;;;;;4991948;28;20506;-76
2022/09/15 08:25:38;;;;;;;2.03;1.40;;;25.50;42.70;;;;;;4994648;28;20430;-77
2022/09/15 08:28:06;;;;;;;2.13;1.43;;;25.70;42.60;;;;;;4992519;28;20458;-77
2022/09/15 08:30:36;;;;;;;1.57;1.47;;;25.90;42.60;;;;;;4990949;28;20459;-75
2022/09/15 08:33:04;;;;;;;1.50;1.40;;;26.20;42.00;;;;;;4989757;28;20436;-76
2022/09/15 08:35:33;;;;;;;4.00;1.27;;;26.20;41.70;;;;;;4996706;28;20435;-77
2022/09/15 08:38:01;;;;;;;2.00;1.43;;;26.20;41.60;;;;;;4990506;28;20428;-77
2022/09/15 08:40:30;;;;;;;1.43;1.23;;;26.20;42.20;;;;;;4992773;28;20510;-76
2022/09/15 08:42:59;;;;;;;1.37;1.20;;;26.20;41.60;;;;;;4992214;28;20427;-77
2022/09/15 08:45:29;;;;;;;1.70;1.53;;;26.40;41.90;;;;;;4998062;28;20420;-77
2022/09/15 08:47:59;;;;;;;1.60;1.40;;;26.70;41.70;;;;;;4992905;28;20416;-79
2022/09/15 08:50:28;;;;;;;1.60;1.27;;;26.90;41.10;;;;;;4988883;28;20467;-77
2022/09/15 08:52:59;;;;;;;1.50;1.40;;;26.90;40.90;;;;;;4992840;28;20436;-79
2022/09/15 08:55:33;;;;;;;1.20;1.10;;;26.90;41.10;;;;;;5009225;28;20421;-77
2022/09/15 08:58:01;;;;;;;1.40;1.30;;;26.90;41.00;;;;;;4992529;28;20457;-77
2022/09/15 09:00:30;;;;;;;1.57;1.43;;;26.90;41.10;;;;;;4993141;28;20479;-76
2022/09/15 09:03:19;;;;;;;1.40;1.30;;;26.90;41.20;;;;;;4995284;28;20842;-76
2022/09/15 09:05:53;;;;;;;3.17;1.83;;;27.00;41.50;;;;;;4995304;28;20453;-78
2022/09/15 09:08:46;;;;;;;1.40;1.30;;;27.20;41.50;;;;;;4994957;28;20484;-76
2022/09/15 09:11:18;;;;;;;2.47;1.20;;;27.40;41.10;;;;;;4995087;28;20486;-75
2022/09/15 09:13:49;;;;;;;1.90;1.50;;;27.30;40.80;;;;;;4995019;28;20449;-77
2022/09/15 09:16:28;;;;;;;10.13;1.50;;;27.20;41.00;;;;;;4995212;28;20482;-77
2022/09/15 09:19:08;;;;;;;1.90;1.37;;;27.20;41.00;;;;;;4995346;28;20461;-77
2022/09/15 09:21:37;;;;;;;2.60;1.40;;;27.10;41.30;;;;;;4995072;28;20416;-76
2022/09/15 09:24:06;;;;;;;2.40;1.47;;;27.10;41.30;;;;;;4994906;28;20930;-77
2022/09/15 09:26:35;;;;;;;4.07;1.50;;;27.00;41.40;;;;;;4994488;28;20415;-77
2022/09/15 09:29:06;;;;;;;4.70;1.20;;;26.90;41.50;;;;;;4994658;28;20455;-76
2022/09/15 09:31:34;;;;;;;3.23;1.40;;;26.90;41.60;;;;;;4994407;28;20419;-75
2022/09/15 09:34:07;;;;;;;2.03;1.53;;;26.90;41.60;;;;;;4994690;28;20437;-77
2022/09/15 09:36:35;;;;;;;3.03;1.33;;;26.80;41.70;;;;;;4994448;28;20438;-76
2022/09/15 09:39:04;;;;;;;3.43;1.20;;;26.80;41.90;;;;;;4994586;28;20495;-76
2022/09/15 09:41:35;;;;;;;2.10;1.33;;;26.80;41.80;;;;;;4994227;28;20863;-76
2022/09/15 09:44:03;;;;;;;2.90;1.37;;;26.80;41.90;;;;;;4994622;28;20441;-76
2022/09/15 09:46:31;;;;;;;1.70;1.60;;;26.80;42.00;;;;;;4994263;28;20437;-77
2022/09/15 09:49:03;;;;;;;1.73;1.63;;;26.80;42.10;;;;;;4994543;28;20473;-76
2022/09/15 09:51:34;;;;;;;4.20;1.40;;;26.90;42.00;;;;;;4993463;28;20416;-76
2022/09/15 09:54:09;;;;;;;2.90;1.53;;;26.90;42.00;;;;;;4994308;28;20475;-77
2022/09/15 09:56:38;;;;;;;2.90;1.70;;;26.90;42.00;;;;;;4994511;28;20539;-78
2022/09/15 09:59:05;;;;;;;2.23;1.30;;;27.00;42.00;;;;;;4994440;28;20440;-78
2022/09/15 10:01:33;;;;;;;3.87;1.60;;;27.00;42.10;;;;;;4993819;28;20412;-77
2022/09/15 10:04:13;;;;;;;1.87;1.77;;;27.10;42.00;;;;;;4994299;28;20523;-75
2022/09/15 10:06:41;;;;;;;1.50;1.40;;;27.40;42.10;;;;;;4994188;28;20411;-77
2022/09/15 10:09:10;;;;;;;3.50;1.63;;;27.70;41.80;;;;;;4993920;28;20477;-77
2022/09/15 10:11:42;;;;;;;2.87;1.67;;;27.90;41.50;;;;;;4993869;28;20431;-77
2022/09/15 10:14:21;;;;;;;3.10;2.00;;;28.20;41.20;;;;;;4993891;28;20444;-77
2022/09/15 10:17:03;;;;;;;2.20;1.83;;;28.40;40.90;;;;;;4993940;28;20404;-76
2022/09/15 10:19:34;;;;;;;2.20;1.70;;;28.60;40.60;;;;;;4993636;28;20896;-77
2022/09/15 10:22:02;;;;;;;6.40;1.50;;;28.60;40.50;;;;;;4993757;28;20446;-76
2022/09/15 10:24:35;;;;;;;4.83;1.63;;;28.70;40.70;;;;;;4993566;28;20453;-76
2022/09/15 10:27:10;;;;;;;2.77;1.50;;;29.00;40.50;;;;;;4993841;28;20431;-76
2022/09/15 10:29:38;;;;;;;5.13;1.93;;;29.20;40.20;;;;;;4993544;28;21045;-77
2022/09/15 10:32:16;;;;;;;2.00;1.80;;;29.40;40.10;;;;;;4993538;28;20420;-77
2022/09/15 10:35:11;;;;;;;2.70;2.10;;;29.60;39.70;;;;;;4985847;28;20452;-76
2022/09/15 10:37:49;;;;;;;1.57;1.47;;;29.70;39.70;;;;;;4993271;28;20423;-76
2022/09/15 10:40:25;;;;;;;1.73;1.63;;;29.90;39.40;;;;;;4993439;28;20428;-78
2022/09/15 10:42:55;;;;;;;8.20;1.57;;;30.00;39.40;;;;;;4993323;28;20564;-77
2022/09/15 10:45:29;;;;;;;4.70;1.87;;;30.20;39.20;;;;;;4993899;28;20408;-78
2022/09/15 10:48:25;;;;;;;1.70;1.60;;;30.40;39.10;;;;;;4993812;28;20445;-78
2022/09/15 10:50:58;;;;;;;2.50;1.30;;;30.70;38.60;;;;;;4993493;28;20484;-77
2022/09/15 10:53:43;;;;;;;3.00;1.43;;;30.70;38.60;;;;;;4993371;28;20441;-77
2022/09/15 10:56:18;;;;;;;4.03;1.50;;;30.80;38.50;;;;;;4993708;28;20433;-77
2022/09/15 10:58:57;;;;;;;1.17;1.07;;;30.70;38.40;;;;;;4993515;28;20524;-78
2022/09/15 11:01:37;;;;;;;1.60;1.53;;;30.50;38.50;;;;;;4993306;28;20429;-77
2022/09/15 11:04:13;;;;;;;2.80;1.40;;;30.40;38.70;;;;;;4993503;28;20422;-78
2022/09/15 11:06:45;;;;;;;1.50;1.40;;;30.40;39.00;;;;;;4993099;28;20441;-78
2022/09/15 11:09:14;;;;;;;1.90;1.40;;;30.30;39.00;;;;;;4993111;28;20436;-78
2022/09/15 11:11:50;;;;;;;1.60;1.60;;;30.20;39.00;;;;;;4993169;28;20852;-77
2022/09/15 11:14:40;;;;;;;2.20;1.60;;;30.20;39.20;;;;;;4992883;28;20415;-77
2022/09/15 11:17:19;;;;;;;6.83;1.67;;;30.20;39.20;;;;;;4992790;28;20461;-76
2022/09/15 11:19:56;;;;;;;1.50;1.40;;;30.30;39.30;;;;;;4992829;28;20462;-77
2022/09/15 11:22:27;;;;;;;1.53;1.30;;;30.40;39.10;;;;;;4992676;28;20415;-77
2022/09/15 11:24:56;;;;;;;1.60;1.50;;;30.70;39.00;;;;;;4992701;28;20431;-77
2022/09/15 11:27:27;;;;;;;2.20;1.30;;;31.00;38.70;;;;;;4992593;28;20449;-77
2022/09/15 11:30:03;;;;;;;1.30;1.20;;;31.20;38.50;;;;;;4992895;28;20477;-77
2022/09/15 11:32:36;;;;;;;1.80;1.70;;;31.10;38.10;;;;;;4992484;28;20503;-77
2022/09/15 11:35:20;;;;;;;2.53;1.40;;;31.10;38.50;;;;;;4992641;28;20433;-78
2022/09/15 11:37:50;;;;;;;1.63;1.37;;;31.30;38.40;;;;;;4992521;28;20500;-76
2022/09/15 11:40:20;;;;;;;2.80;1.27;;;31.60;38.20;;;;;;4992504;28;20453;-76
2022/09/15 11:42:51;;;;;;;1.57;1.47;;;31.70;37.90;;;;;;4992403;28;20449;-77
2022/09/15 11:45:21;;;;;;;2.50;1.43;;;31.90;38.00;;;;;;4992575;28;20437;-78
2022/09/15 11:47:50;;;;;;;1.57;1.20;;;32.10;37.60;;;;;;4992173;28;20437;-78
2022/09/15 11:50:20;;;;;;;1.40;1.27;;;32.30;37.30;;;;;;4992267;28;20488;-78
2022/09/15 11:52:52;;;;;;;1.50;1.40;;;32.40;37.00;;;;;;4992382;28;20555;-78
2022/09/15 11:55:24;;;;;;;3.17;1.23;;;32.60;36.80;;;;;;4992410;28;20441;-78
2022/09/15 11:57:55;;;;;;;1.13;1.13;;;32.70;36.60;;;;;;4992253;28;20441;-78
2022/09/15 12:00:24;;;;;;;2.30;1.13;;;32.70;36.30;;;;;;4992453;28;20449;-78
2022/09/15 12:02:55;;;;;;;5.97;1.20;;;32.60;36.40;;;;;;4992214;28;20430;-76
2022/09/15 12:05:26;;;;;;;1.27;1.17;;;32.30;36.40;;;;;;4992523;28;20449;-77
2022/09/15 12:07:56;;;;;;;1.13;1.13;;;32.20;36.70;;;;;;4992761;28;20518;-77
2022/09/15 12:10:26;;;;;;;1.23;1.20;;;32.20;36.80;;;;;;4991704;28;20830;-77
2022/09/15 12:12:54;;;;;;;1.40;1.30;;;32.30;36.80;;;;;;4992044;28;20457;-77
2022/09/15 12:15:26;;;;;;;2.17;1.27;;;32.50;36.90;;;;;;4993978;28;20453;-77
2022/09/15 12:18:00;;;;;;;1.13;1.03;;;32.60;36.40;;;;;;4996191;28;20540;-77
2022/09/15 12:20:44;;;;;;;1.20;1.10;;;32.50;36.40;;;;;;4996087;28;20520;-76
2022/09/15 12:23:18;;;;;;;2.50;1.17;;;32.30;36.40;;;;;;4996079;28;20449;-76
2022/09/15 12:25:58;;;;;;;1.30;1.20;;;32.20;36.70;;;;;;4996113;28;20452;-77
2022/09/15 12:28:27;;;;;;;1.00;1.00;;;32.20;36.80;;;;;;4995925;28;20448;-77
2022/09/15 12:31:25;;;;;;;1.77;1.50;;;32.10;36.80;;;;;;4995992;28;20560;-77
2022/09/15 12:33:57;;;;;;;1.20;1.17;;;31.90;36.80;;;;;;4996117;28;20895;-78
2022/09/15 12:36:51;;;;;;;1.43;1.30;;;31.70;37.30;;;;;;4995813;28;20452;-77
2022/09/15 12:39:28;;;;;;;1.87;1.47;;;31.50;37.40;;;;;;4995617;28;20512;-77
2022/09/15 12:42:03;;;;;;;1.37;1.20;;;31.30;37.80;;;;;;4995658;28;20433;-77
2022/09/15 12:44:33;;;;;;;1.30;1.20;;;31.10;38.10;;;;;;4995478;28;20943;-75
2022/09/15 12:47:02;;;;;;;2.43;1.20;;;31.10;38.20;;;;;;4995337;28;20468;-76
2022/09/15 12:49:32;;;;;;;1.63;1.33;;;31.00;38.20;;;;;;4995470;28;20468;-77
2022/09/15 12:52:01;;;;;;;1.20;1.20;;;31.00;38.20;;;;;;4995329;28;20504;-77
2022/09/15 12:54:31;;;;;;;6.50;1.17;;;31.00;38.30;;;;;;4995423;28;20511;-77
2022/09/15 12:57:00;;;;;;;1.13;1.00;;;31.00;38.40;;;;;;4995618;28;20431;-77
2022/09/15 12:59:28;;;;;;;2.70;1.10;;;30.90;38.40;;;;;;4995387;28;20469;-77
2022/09/15 13:01:56;;;;;;;2.60;1.30;;;30.80;38.30;;;;;;4995368;28;20456;-77
2022/09/15 13:04:41;;;;;;;1.03;1.03;;;30.80;38.50;;;;;;4995282;28;20903;-77
2022/09/15 13:07:32;;;;;;;2.13;1.40;;;30.70;38.60;;;;;;4979593;28;20444;-77
2022/09/15 13:10:21;;;;;;;1.67;1.30;;;30.60;38.60;;;;;;4994869;28;20439;-77